createdAt,value
2017-12-14T00:03:05.097Z,93865
2017-12-14T00:08:34.140Z,93899
2017-12-14T00:14:02.311Z,93889
2017-12-14T00:19:30.494Z,93889
2017-12-14T00:24:58.085Z,93885
2017-12-14T00:30:26.303Z,93873
2017-12-14T00:35:54.479Z,93866
2017-12-14T00:41:36.625Z,93867
2017-12-14T00:47:04.797Z,93859
2017-12-14T00:52:32.981Z,93864
2017-12-14T00:58:01.154Z,93881
2017-12-14T01:03:29.330Z,93861
2017-12-14T01:08:58.280Z,93848
2017-12-14T01:14:26.480Z,93829
2017-12-14T01:19:58.656Z,93841
2017-12-14T01:25:26.903Z,93831
2017-12-14T01:30:55.077Z,93823
2017-12-14T01:36:23.260Z,93830
2017-12-14T01:41:52.228Z,93822
2017-12-14T01:47:22.421Z,93824
2017-12-14T01:52:50.609Z,93840
2017-12-14T01:58:18.846Z,93833
2017-12-14T02:03:47.043Z,93808
2017-12-14T02:09:16.807Z,93809
2017-12-14T02:14:44.976Z,93807
2017-12-14T02:20:16.168Z,93814
2017-12-14T02:25:44.348Z,93808
2017-12-14T02:31:12.530Z,93815
2017-12-14T02:36:40.975Z,93803
2017-12-14T02:42:28.363Z,93799
2017-12-14T02:47:56.576Z,93776
2017-12-14T02:53:25.529Z,93786
2017-12-14T02:58:57.268Z,93787
2017-12-14T03:04:25.555Z,93779
2017-12-14T03:09:53.736Z,93783
2017-12-14T03:15:21.938Z,93803
2017-12-14T03:20:50.375Z,93812
2017-12-14T03:26:19.506Z,93822
2017-12-14T03:31:47.684Z,93809
2017-12-14T03:37:15.871Z,93859
2017-12-14T03:42:44.951Z,93828
2017-12-14T03:48:13.120Z,93851
2017-12-14T03:53:41.556Z,93809
2017-12-14T03:59:09.749Z,93818
2017-12-14T04:04:37.950Z,93809
2017-12-14T04:10:06.135Z,93778
2017-12-14T04:15:35.119Z,93776
2017-12-14T04:21:05.290Z,93761
2017-12-14T04:26:33.486Z,93760
2017-12-14T04:32:01.688Z,93787
2017-12-14T04:37:30.685Z,93772
2017-12-14T04:42:59.828Z,93776
2017-12-14T04:48:28.019Z,93774
2017-12-14T04:53:56.214Z,93749
2017-12-14T04:59:25.161Z,93749
2017-12-14T05:04:53.419Z,93759
2017-12-14T05:10:21.619Z,93772
2017-12-14T05:15:49.833Z,93804
2017-12-14T05:21:18.004Z,93782
2017-12-14T05:26:46.190Z,93806
2017-12-14T05:32:14.888Z,93781
2017-12-14T05:37:43.190Z,93774
2017-12-14T05:43:11.449Z,93790
2017-12-14T05:48:40.409Z,93788
2017-12-14T05:54:08.598Z,93807
2017-12-14T05:59:37.752Z,93835
2017-12-14T06:05:05.973Z,93859
2017-12-14T06:10:34.182Z,93856
2017-12-14T06:16:02.408Z,93846
2017-12-14T06:21:30.611Z,93844
2017-12-14T06:26:58.850Z,93840
2017-12-14T06:32:27.104Z,93914
2017-12-14T06:37:55.297Z,94044
2017-12-14T06:43:23.481Z,94118
2017-12-14T06:48:51.708Z,94132
2017-12-14T06:54:20.051Z,94150
2017-12-14T06:59:48.227Z,94104
2017-12-14T07:05:16.426Z,94119
2017-12-14T07:10:44.624Z,94111
2017-12-14T07:16:12.816Z,94092
2017-12-14T07:21:41.029Z,94189
2017-12-14T07:27:09.260Z,94162
2017-12-14T07:32:37.462Z,94177
2017-12-14T07:38:05.674Z,94134
2017-12-14T07:43:33.854Z,94063
2017-12-14T07:49:19.928Z,94168
2017-12-14T07:54:48.124Z,94140
2017-12-14T08:00:17.094Z,94254
2017-12-14T08:05:45.318Z,94245
2017-12-14T08:11:13.493Z,94269
2017-12-14T08:16:41.680Z,94273
2017-12-14T08:22:09.912Z,94293
2017-12-14T08:27:38.104Z,94282
2017-12-14T08:33:06.300Z,94314
2017-12-14T08:38:35.277Z,94287
2017-12-14T08:44:03.442Z,94332
2017-12-14T08:49:32.415Z,94295
2017-12-14T08:55:00.610Z,94300
2017-12-14T09:00:28.797Z,94332
2017-12-14T09:05:56.998Z,94336
2017-12-14T09:11:25.198Z,94349
2017-12-14T09:16:53.410Z,94361
2017-12-14T09:22:21.631Z,94378
2017-12-14T09:27:49.828Z,94372
2017-12-14T09:33:18.795Z,94383
2017-12-14T09:38:46.990Z,94384
2017-12-14T09:44:15.946Z,94403
2017-12-14T09:49:44.151Z,94420
2017-12-14T09:55:13.110Z,94417
2017-12-14T10:00:44.335Z,94427
2017-12-14T10:06:12.603Z,94439
2017-12-14T10:11:45.174Z,94440
2017-12-14T10:17:14.314Z,94427
2017-12-14T10:22:42.537Z,94400
2017-12-14T10:28:10.762Z,94398
2017-12-14T10:33:38.964Z,94382
2017-12-14T10:39:07.162Z,94379
2017-12-14T10:44:36.108Z,94373
2017-12-14T10:50:04.289Z,94352
2017-12-14T10:55:32.540Z,94360
2017-12-14T11:01:07.109Z,94352
2017-12-14T11:06:36.111Z,94337
2017-12-14T11:12:04.315Z,94333
2017-12-14T11:17:32.526Z,94303
2017-12-14T11:23:00.734Z,94295
2017-12-14T11:28:29.845Z,94301
2017-12-14T11:33:58.878Z,94289
2017-12-14T11:39:27.873Z,94297
2017-12-14T11:44:56.137Z,94277
2017-12-14T11:50:24.350Z,94301
2017-12-14T11:55:52.570Z,94294
2017-12-14T12:01:20.789Z,94291
2017-12-14T12:06:49.014Z,94282
2017-12-14T12:12:17.215Z,94284
2017-12-14T12:17:45.410Z,94273
2017-12-14T12:23:13.635Z,94279
2017-12-14T12:28:42.573Z,94276
2017-12-14T12:34:10.929Z,94286
2017-12-14T12:39:40.211Z,94291
2017-12-14T12:45:09.497Z,94275
2017-12-14T12:50:37.688Z,94279
2017-12-14T12:56:05.855Z,94272
2017-12-14T13:01:34.059Z,94259
2017-12-14T13:07:02.261Z,94265
2017-12-14T13:12:31.722Z,94272
2017-12-14T13:17:59.952Z,94259
2017-12-14T13:23:28.179Z,94260
2017-12-14T13:29:08.866Z,94248
2017-12-14T13:34:37.047Z,94250
2017-12-14T13:40:05.269Z,94261
2017-12-14T13:45:33.439Z,94251
2017-12-14T13:51:02.540Z,94257
2017-12-14T13:56:30.713Z,94246
2017-12-14T14:02:00.902Z,94243
2017-12-14T14:07:34.500Z,94249
2017-12-14T14:13:02.678Z,94231
2017-12-14T14:18:30.858Z,94222
2017-12-14T14:23:59.128Z,94219
2017-12-14T14:29:27.390Z,94210
2017-12-14T14:34:55.509Z,94213
2017-12-14T14:40:25.706Z,94209
2017-12-14T14:45:53.922Z,94203
2017-12-14T14:51:22.103Z,94205
2017-12-14T14:56:57.071Z,94198
2017-12-14T15:02:25.262Z,94191
2017-12-14T15:07:53.443Z,94187
2017-12-14T15:13:21.642Z,94181
2017-12-14T15:18:51.605Z,94181
2017-12-14T15:24:21.490Z,94154
2017-12-14T15:29:49.811Z,94157
2017-12-14T15:35:17.975Z,94152
2017-12-14T15:40:46.149Z,94144
2017-12-14T15:46:14.355Z,94127
2017-12-14T15:51:44.252Z,94128
2017-12-14T15:57:17.068Z,94101
2017-12-14T16:02:47.265Z,94096
2017-12-14T16:08:21.706Z,94094
2017-12-14T16:13:51.073Z,94085
2017-12-14T16:19:19.354Z,94091
2017-12-14T16:24:48.310Z,94075
2017-12-14T16:30:16.596Z,94059
2017-12-14T16:35:44.799Z,94053
2017-12-14T16:41:12.971Z,94055
2017-12-14T16:46:41.156Z,94041
2017-12-14T16:52:09.348Z,94030
2017-12-14T16:57:37.535Z,94016
2017-12-14T17:03:05.708Z,94012
2017-12-14T17:08:34.729Z,93996
2017-12-14T17:14:02.925Z,93977
2017-12-14T17:19:31.190Z,93969
2017-12-14T17:24:59.436Z,93946
2017-12-14T17:30:27.640Z,93943
2017-12-14T17:35:55.895Z,93915
2017-12-14T17:41:24.083Z,93933
2017-12-14T17:46:56.246Z,93960
2017-12-14T17:52:25.217Z,93961
2017-12-14T17:57:54.200Z,93945
2017-12-14T18:03:23.173Z,93949
2017-12-14T18:08:51.408Z,93945
2017-12-14T18:14:19.656Z,93936
2017-12-14T18:19:48.855Z,93925
2017-12-14T18:25:17.065Z,93911
2017-12-14T18:30:45.369Z,93899
2017-12-14T18:36:13.553Z,93872
2017-12-14T18:41:56.416Z,93861
2017-12-14T18:47:25.433Z,93854
2017-12-14T18:52:53.646Z,93855
2017-12-14T18:58:21.833Z,93853
2017-12-14T19:03:53.164Z,93853
2017-12-14T19:09:21.485Z,93867
2017-12-14T19:14:49.797Z,93854
2017-12-14T19:20:18.993Z,93860
2017-12-14T19:25:47.254Z,93840
2017-12-14T19:31:16.416Z,93815
2017-12-14T19:36:44.635Z,93838
2017-12-14T19:42:12.834Z,93815
2017-12-14T19:47:46.685Z,93792
2017-12-14T19:53:15.761Z,93788
2017-12-14T19:58:43.923Z,93777
2017-12-14T20:04:12.089Z,93787
2017-12-14T20:09:40.316Z,93777
2017-12-14T20:15:09.615Z,93775
2017-12-14T20:20:41.252Z,93764
2017-12-14T20:26:09.461Z,93770
2017-12-14T20:31:38.543Z,93761
2017-12-14T20:37:06.757Z,93771
2017-12-14T20:42:35.924Z,93767
2017-12-14T20:48:04.942Z,93753
2017-12-14T20:53:34.778Z,93772
2017-12-14T20:59:03.086Z,93768
2017-12-14T21:04:32.042Z,93770
2017-12-14T21:10:00.245Z,93750
2017-12-14T21:15:42.032Z,93761
2017-12-14T21:21:10.220Z,93755
2017-12-14T21:26:38.384Z,93734
2017-12-14T21:32:09.799Z,93724
2017-12-14T21:37:39.906Z,93726
2017-12-14T21:43:11.309Z,93740
2017-12-14T21:48:39.481Z,93724
2017-12-14T21:54:15.366Z,93695
2017-12-14T21:59:43.554Z,93684
2017-12-14T22:05:11.762Z,93699
2017-12-14T22:10:39.945Z,93696
2017-12-14T22:16:08.127Z,93690
2017-12-14T22:21:44.770Z,93687
2017-12-14T22:27:12.958Z,93666
2017-12-14T22:32:41.146Z,93676
2017-12-14T22:38:10.091Z,93672
2017-12-14T22:43:38.288Z,93649
2017-12-14T22:49:06.482Z,93623
2017-12-14T22:54:34.669Z,93629
2017-12-14T23:00:04.956Z,93622
2017-12-14T23:05:33.143Z,93624
2017-12-14T23:11:02.098Z,93633
2017-12-14T23:16:31.066Z,93633
2017-12-14T23:21:59.261Z,93671
2017-12-14T23:27:27.431Z,93671
2017-12-14T23:33:15.944Z,93648
2017-12-14T23:38:44.319Z,93620
2017-12-14T23:44:12.506Z,93614
2017-12-14T23:49:41.449Z,93626
2017-12-14T23:55:18.785Z,93597
